sensor_id;sensor_type;location;lat;lon;timestamp;temperature;humidity
21518;DHT22;61765;45.794;24.150;2023-05-15T00:02:07;20.20;58.80
21518;DHT22;61765;45.794;24.150;2023-05-15T00:10:16;20.40;58.50
21518;DHT22;61765;45.794;24.150;2023-05-15T00:18:21;20.50;57.90
21518;DHT22;61765;45.794;24.150;2023-05-15T00:26:29;20.20;58.60
21518;DHT22;61765;45.794;24.150;2023-05-15T00:34:35;20.20;58.50
21518;DHT22;61765;45.794;24.150;2023-05-15T00:42:43;20.30;58.50
21518;DHT22;61765;45.794;24.150;2023-05-15T00:50:49;20.10;58.60
21518;DHT22;61765;45.794;24.150;2023-05-15T00:58:58;19.90;58.60
21518;DHT22;61765;45.794;24.150;2023-05-15T01:07:05;19.40;59.20
21518;DHT22;61765;45.794;24.150;2023-05-15T01:15:13;19.70;58.90
21518;DHT22;61765;45.794;24.150;2023-05-15T01:23:24;19.80;58.60
21518;DHT22;61765;45.794;24.150;2023-05-15T01:31:41;19.80;58.10
21518;DHT22;61765;45.794;24.150;2023-05-15T01:39:52;19.40;57.80
21518;DHT22;61765;45.794;24.150;2023-05-15T01:48:01;19.30;57.20
21518;DHT22;61765;45.794;24.150;2023-05-15T01:56:11;18.70;57.70
21518;DHT22;61765;45.794;24.150;2023-05-15T02:04:21;19.00;56.80
21518;DHT22;61765;45.794;24.150;2023-05-15T02:12:27;19.20;56.90
21518;DHT22;61765;45.794;24.150;2023-05-15T02:20:35;19.70;55.40
21518;DHT22;61765;45.794;24.150;2023-05-15T02:28:48;20.10;54.90
21518;DHT22;61765;45.794;24.150;2023-05-15T02:37:00;19.90;55.30
21518;DHT22;61765;45.794;24.150;2023-05-15T02:45:07;20.00;54.70
21518;DHT22;61765;45.794;24.150;2023-05-15T02:53:16;19.60;55.80
21518;DHT22;61765;45.794;24.150;2023-05-15T03:01:22;19.30;55.80
21518;DHT22;61765;45.794;24.150;2023-05-15T03:09:30;19.60;54.80
21518;DHT22;61765;45.794;24.150;2023-05-15T03:17:35;19.50;54.70
21518;DHT22;61765;45.794;24.150;2023-05-15T03:25:44;19.70;54.50
21518;DHT22;61765;45.794;24.150;2023-05-15T03:33:49;20.30;53.80
21518;DHT22;61765;45.794;24.150;2023-05-15T03:41:58;20.40;54.20
21518;DHT22;61765;45.794;24.150;2023-05-15T03:50:04;20.50;54.80
21518;DHT22;61765;45.794;24.150;2023-05-15T03:58:12;20.80;55.20
21518;DHT22;61765;45.794;24.150;2023-05-15T04:06:18;21.10;55.90
21518;DHT22;61765;45.794;24.150;2023-05-15T04:14:26;21.10;55.30
21518;DHT22;61765;45.794;24.150;2023-05-15T04:22:32;21.10;55.00
21518;DHT22;61765;45.794;24.150;2023-05-15T04:30:40;21.10;54.40
21518;DHT22;61765;45.794;24.150;2023-05-15T04:38:45;20.80;51.30
21518;DHT22;61765;45.794;24.150;2023-05-15T04:46:53;20.60;51.80
21518;DHT22;61765;45.794;24.150;2023-05-15T04:54:59;20.30;52.00
21518;DHT22;61765;45.794;24.150;2023-05-15T05:03:07;20.90;51.70
21518;DHT22;61765;45.794;24.150;2023-05-15T05:11:13;21.20;51.40
21518;DHT22;61765;45.794;24.150;2023-05-15T05:19:21;21.50;52.00
21518;DHT22;61765;45.794;24.150;2023-05-15T05:27:27;22.10;52.00
21518;DHT22;61765;45.794;24.150;2023-05-15T05:35:35;22.40;51.80
21518;DHT22;61765;45.794;24.150;2023-05-15T05:43:40;22.80;51.30
21518;DHT22;61765;45.794;24.150;2023-05-15T05:51:48;22.10;52.10
21518;DHT22;61765;45.794;24.150;2023-05-15T05:59:54;21.80;51.90
21518;DHT22;61765;45.794;24.150;2023-05-15T06:08:02;21.80;51.90
21518;DHT22;61765;45.794;24.150;2023-05-15T06:16:08;21.80;52.80
21518;DHT22;61765;45.794;24.150;2023-05-15T06:24:16;21.80;52.20
21518;DHT22;61765;45.794;24.150;2023-05-15T06:32:21;21.90;52.30
21518;DHT22;61765;45.794;24.150;2023-05-15T06:40:30;22.20;53.00
21518;DHT22;61765;45.794;24.150;2023-05-15T06:48:35;22.80;52.10
21518;DHT22;61765;45.794;24.150;2023-05-15T06:56:43;22.70;52.40
21518;DHT22;61765;45.794;24.150;2023-05-15T07:04:49;22.70;53.30
21518;DHT22;61765;45.794;24.150;2023-05-15T07:12:57;22.90;52.70
21518;DHT22;61765;45.794;24.150;2023-05-15T07:21:04;22.80;52.90
21518;DHT22;61765;45.794;24.150;2023-05-15T07:29:12;23.70;53.60
21518;DHT22;61765;45.794;24.150;2023-05-15T07:37:18;24.30;53.40
21518;DHT22;61765;45.794;24.150;2023-05-15T07:45:27;24.60;52.90
21518;DHT22;61765;45.794;24.150;2023-05-15T07:53:33;24.50;52.90
21518;DHT22;61765;45.794;24.150;2023-05-15T08:01:40;24.20;52.90
21518;DHT22;61765;45.794;24.150;2023-05-15T08:09:46;23.70;54.30
21518;DHT22;61765;45.794;24.150;2023-05-15T08:17:54;24.00;54.30
21518;DHT22;61765;45.794;24.150;2023-05-15T08:25:59;23.40;55.20
21518;DHT22;61765;45.794;24.150;2023-05-15T08:34:07;23.20;55.10
21518;DHT22;61765;45.794;24.150;2023-05-15T08:42:20;23.00;57.10
21518;DHT22;61765;45.794;24.150;2023-05-15T08:50:28;22.70;57.10
21518;DHT22;61765;45.794;24.150;2023-05-15T08:58:35;22.50;57.70
21518;DHT22;61765;45.794;24.150;2023-05-15T09:06:43;22.20;58.50
21518;DHT22;61765;45.794;24.150;2023-05-15T09:14:50;22.70;58.10
21518;DHT22;61765;45.794;24.150;2023-05-15T09:22:59;23.00;57.50
21518;DHT22;61765;45.794;24.150;2023-05-15T09:31:05;23.50;57.30
21518;DHT22;61765;45.794;24.150;2023-05-15T09:39:13;23.80;56.60
21518;DHT22;61765;45.794;24.150;2023-05-15T09:47:26;24.20;56.50
21518;DHT22;61765;45.794;24.150;2023-05-15T09:55:35;24.90;55.40
21518;DHT22;61765;45.794;24.150;2023-05-15T10:03:40;25.70;54.80
21518;DHT22;61765;45.794;24.150;2023-05-15T10:11:50;25.90;54.40
21518;DHT22;61765;45.794;24.150;2023-05-15T10:19:58;26.00;54.20
21518;DHT22;61765;45.794;24.150;2023-05-15T10:28:08;25.90;54.30
21518;DHT22;61765;45.794;24.150;2023-05-15T10:36:15;26.20;54.40
21518;DHT22;61765;45.794;24.150;2023-05-15T10:44:23;25.40;55.30
21518;DHT22;61765;45.794;24.150;2023-05-15T10:52:30;25.10;56.40
21518;DHT22;61765;45.794;24.150;2023-05-15T11:00:43;24.20;58.00
21518;DHT22;61765;45.794;24.150;2023-05-15T11:08:49;24.60;58.00
21518;DHT22;61765;45.794;24.150;2023-05-15T11:17:04;24.50;59.20
21518;DHT22;61765;45.794;24.150;2023-05-15T11:25:10;24.40;62.70
21518;DHT22;61765;45.794;24.150;2023-05-15T11:33:20;24.30;63.60
21518;DHT22;61765;45.794;24.150;2023-05-15T11:41:30;24.30;61.50
21518;DHT22;61765;45.794;24.150;2023-05-15T11:49:49;24.50;61.30
21518;DHT22;61765;45.794;24.150;2023-05-15T11:57:55;25.00;60.50
21518;DHT22;61765;45.794;24.150;2023-05-15T12:06:03;24.70;61.00
21518;DHT22;61765;45.794;24.150;2023-05-15T12:14:10;26.00;59.10
21518;DHT22;61765;45.794;24.150;2023-05-15T12:22:20;26.60;57.80
21518;DHT22;61765;45.794;24.150;2023-05-15T12:30:31;30.90;51.70
21518;DHT22;61765;45.794;24.150;2023-05-15T12:38:41;33.40;47.90
21518;DHT22;61765;45.794;24.150;2023-05-15T12:46:46;33.00;48.80
21518;DHT22;61765;45.794;24.150;2023-05-15T12:54:55;31.10;49.70
21518;DHT22;61765;45.794;24.150;2023-05-15T13:03:04;28.50;53.10
21518;DHT22;61765;45.794;24.150;2023-05-15T13:11:13;26.60;56.90
21518;DHT22;61765;45.794;24.150;2023-05-15T13:19:19;25.10;60.00
21518;DHT22;61765;45.794;24.150;2023-05-15T13:27:27;23.90;63.20
21518;DHT22;61765;45.794;24.150;2023-05-15T13:35:33;25.10;60.90
21518;DHT22;61765;45.794;24.150;2023-05-15T13:43:41;25.70;60.00
21518;DHT22;61765;45.794;24.150;2023-05-15T13:51:46;26.30;59.00
21518;DHT22;61765;45.794;24.150;2023-05-15T13:59:54;26.20;59.80
21518;DHT22;61765;45.794;24.150;2023-05-15T14:08:00;25.40;61.00
21518;DHT22;61765;45.794;24.150;2023-05-15T14:16:08;25.40;61.20
21518;DHT22;61765;45.794;24.150;2023-05-15T14:24:14;24.70;62.70
21518;DHT22;61765;45.794;24.150;2023-05-15T14:32:21;25.00;62.20
21518;DHT22;61765;45.794;24.150;2023-05-15T14:40:27;24.20;64.20
21518;DHT22;61765;45.794;24.150;2023-05-15T14:48:35;24.50;64.30
21518;DHT22;61765;45.794;24.150;2023-05-15T14:56:41;24.00;65.60
21518;DHT22;61765;45.794;24.150;2023-05-15T15:04:49;23.80;66.50
21518;DHT22;61765;45.794;24.150;2023-05-15T15:12:54;23.90;66.60
21518;DHT22;61765;45.794;24.150;2023-05-15T15:21:02;23.80;67.30
21518;DHT22;61765;45.794;24.150;2023-05-15T15:29:08;24.10;66.40
21518;DHT22;61765;45.794;24.150;2023-05-15T15:37:16;24.20;66.40
21518;DHT22;61765;45.794;24.150;2023-05-15T15:45:21;24.10;67.00
21518;DHT22;61765;45.794;24.150;2023-05-15T15:53:30;24.00;67.20
21518;DHT22;61765;45.794;24.150;2023-05-15T16:01:36;23.80;67.80
21518;DHT22;61765;45.794;24.150;2023-05-15T16:09:44;23.60;68.90
21518;DHT22;61765;45.794;24.150;2023-05-15T16:18:09;23.60;68.60
21518;DHT22;61765;45.794;24.150;2023-05-15T16:26:18;23.80;68.50
21518;DHT22;61765;45.794;24.150;2023-05-15T16:34:23;24.50;66.50
21518;DHT22;61765;45.794;24.150;2023-05-15T16:42:34;24.80;65.80
21518;DHT22;61765;45.794;24.150;2023-05-15T16:50:40;24.70;65.70
21518;DHT22;61765;45.794;24.150;2023-05-15T16:58:48;24.20;66.80
21518;DHT22;61765;45.794;24.150;2023-05-15T17:06:54;24.10;67.40
21518;DHT22;61765;45.794;24.150;2023-05-15T17:15:03;24.40;66.60
21518;DHT22;61765;45.794;24.150;2023-05-15T17:23:08;24.60;66.10
21518;DHT22;61765;45.794;24.150;2023-05-15T17:31:16;24.30;67.00
21518;DHT22;61765;45.794;24.150;2023-05-15T17:39:22;23.60;68.40
21518;DHT22;61765;45.794;24.150;2023-05-15T17:47:31;23.30;69.70
21518;DHT22;61765;45.794;24.150;2023-05-15T17:55:36;23.00;70.00
21518;DHT22;61765;45.794;24.150;2023-05-15T18:03:44;22.50;71.60
21518;DHT22;61765;45.794;24.150;2023-05-15T18:11:50;22.70;71.70
21518;DHT22;61765;45.794;24.150;2023-05-15T18:19:58;23.00;71.00
21518;DHT22;61765;45.794;24.150;2023-05-15T18:28:04;23.00;71.00
21518;DHT22;61765;45.794;24.150;2023-05-15T18:36:12;22.80;71.10
21518;DHT22;61765;45.794;24.150;2023-05-15T18:44:20;22.70;71.70
21518;DHT22;61765;45.794;24.150;2023-05-15T18:52:28;22.60;71.60
21518;DHT22;61765;45.794;24.150;2023-05-15T19:00:34;23.40;69.70
21518;DHT22;61765;45.794;24.150;2023-05-15T19:08:43;23.60;69.00
21518;DHT22;61765;45.794;24.150;2023-05-15T19:16:48;24.20;67.60
21518;DHT22;61765;45.794;24.150;2023-05-15T19:24:56;24.30;66.70
21518;DHT22;61765;45.794;24.150;2023-05-15T19:33:02;24.40;66.40
21518;DHT22;61765;45.794;24.150;2023-05-15T19:41:10;24.30;67.00
21518;DHT22;61765;45.794;24.150;2023-05-15T19:49:15;24.30;66.60
21518;DHT22;61765;45.794;24.150;2023-05-15T19:57:24;24.20;66.70
21518;DHT22;61765;45.794;24.150;2023-05-15T20:05:29;23.80;67.40
21518;DHT22;61765;45.794;24.150;2023-05-15T20:13:37;23.60;68.00
21518;DHT22;61765;45.794;24.150;2023-05-15T20:21:42;23.20;68.70
21518;DHT22;61765;45.794;24.150;2023-05-15T20:29:50;23.10;69.10
21518;DHT22;61765;45.794;24.150;2023-05-15T20:37:56;22.90;69.90
21518;DHT22;61765;45.794;24.150;2023-05-15T20:46:06;22.70;70.40
21518;DHT22;61765;45.794;24.150;2023-05-15T20:54:12;22.60;70.60
21518;DHT22;61765;45.794;24.150;2023-05-15T21:02:21;22.60;70.40
21518;DHT22;61765;45.794;24.150;2023-05-15T21:10:33;22.90;69.90
21518;DHT22;61765;45.794;24.150;2023-05-15T21:18:42;22.80;70.10
21518;DHT22;61765;45.794;24.150;2023-05-15T21:26:47;22.90;69.50
21518;DHT22;61765;45.794;24.150;2023-05-15T21:34:55;23.10;69.10
21518;DHT22;61765;45.794;24.150;2023-05-15T21:43:00;22.10;71.10
21518;DHT22;61765;45.794;24.150;2023-05-15T21:51:08;22.30;70.70
21518;DHT22;61765;45.794;24.150;2023-05-15T21:59:14;22.50;70.10
21518;DHT22;61765;45.794;24.150;2023-05-15T22:07:22;22.60;69.90
21518;DHT22;61765;45.794;24.150;2023-05-15T22:15:27;23.10;68.60
21518;DHT22;61765;45.794;24.150;2023-05-15T22:23:35;23.40;67.40
21518;DHT22;61765;45.794;24.150;2023-05-15T22:31:40;23.50;66.60
21518;DHT22;61765;45.794;24.150;2023-05-15T22:39:49;23.00;68.40
21518;DHT22;61765;45.794;24.150;2023-05-15T22:47:54;23.10;68.20
21518;DHT22;61765;45.794;24.150;2023-05-15T22:56:03;23.10;67.60
21518;DHT22;61765;45.794;24.150;2023-05-15T23:04:08;23.00;67.90
21518;DHT22;61765;45.794;24.150;2023-05-15T23:12:17;23.20;67.20
21518;DHT22;61765;45.794;24.150;2023-05-15T23:20:22;23.50;66.80
21518;DHT22;61765;45.794;24.150;2023-05-15T23:28:31;23.60;67.00
21518;DHT22;61765;45.794;24.150;2023-05-15T23:36:36;23.60;66.20
21518;DHT22;61765;45.794;24.150;2023-05-15T23:44:44;23.50;66.10
21518;DHT22;61765;45.794;24.150;2023-05-15T23:52:49;23.80;66.50
